createdAt,value
2018-03-29T00:01:58.321Z,3.90
2018-03-29T00:04:25.029Z,4.27
2018-03-29T00:06:51.738Z,9.53
2018-03-29T00:09:18.460Z,3.57
2018-03-29T00:11:45.239Z,2.80
2018-03-29T00:14:11.934Z,4.30
2018-03-29T00:16:38.633Z,4.53
2018-03-29T00:19:05.346Z,5.47
2018-03-29T00:21:32.091Z,2.63
2018-03-29T00:23:58.805Z,4.53
2018-03-29T00:26:25.508Z,4.67
2018-03-29T00:28:52.231Z,2.97
2018-03-29T00:31:18.930Z,6.03
2018-03-29T00:33:45.697Z,6.03
2018-03-29T00:36:12.420Z,4.73
2018-03-29T00:38:39.125Z,7.23
2018-03-29T00:41:05.824Z,2.23
2018-03-29T00:43:32.525Z,8.60
2018-03-29T00:45:59.257Z,3.93
2018-03-29T00:48:25.957Z,2.17
2018-03-29T00:50:52.668Z,4.10
2018-03-29T00:53:25.152Z,3.17
2018-03-29T00:55:51.917Z,3.30
2018-03-29T00:58:18.669Z,6.33
2018-03-29T01:00:45.391Z,2.97
2018-03-29T01:03:12.088Z,3.33
2018-03-29T01:05:38.785Z,5.73
2018-03-29T01:08:05.490Z,4.20
2018-03-29T01:10:32.224Z,3.07
2018-03-29T01:12:58.929Z,3.90
2018-03-29T01:15:25.637Z,5.37
2018-03-29T01:17:52.356Z,3.43
2018-03-29T01:20:19.077Z,3.53
2018-03-29T01:22:45.841Z,3.70
2018-03-29T01:25:12.541Z,7.93
2018-03-29T01:27:39.243Z,10.47
2018-03-29T01:30:05.949Z,6.90
2018-03-29T01:32:38.441Z,4.80
2018-03-29T01:35:05.168Z,7.97
2018-03-29T01:37:31.902Z,5.63
2018-03-29T01:39:58.604Z,4.67
2018-03-29T01:42:25.305Z,4.40
2018-03-29T01:44:52.028Z,3.57
2018-03-29T01:47:18.761Z,2.87
2018-03-29T01:49:45.459Z,6.97
2018-03-29T01:52:12.196Z,5.80
2018-03-29T01:54:38.911Z,5.17
2018-03-29T01:57:05.623Z,2.70
2018-03-29T01:59:32.368Z,4.57
2018-03-29T02:01:59.079Z,3.67
2018-03-29T02:04:25.792Z,4.80
2018-03-29T02:06:52.493Z,5.77
2018-03-29T02:09:19.200Z,2.47
2018-03-29T02:11:45.937Z,6.37
2018-03-29T02:14:12.653Z,2.30
2018-03-29T02:16:39.365Z,3.23
2018-03-29T02:19:06.076Z,4.50
2018-03-29T02:21:33.113Z,4.83
2018-03-29T02:23:59.848Z,2.17
2018-03-29T02:26:26.593Z,2.80
2018-03-29T02:28:53.301Z,5.37
2018-03-29T02:31:20.031Z,5.30
2018-03-29T02:33:46.737Z,2.80
2018-03-29T02:36:13.493Z,7.20
2018-03-29T02:38:40.209Z,4.27
2018-03-29T02:41:06.933Z,3.87
2018-03-29T02:43:33.638Z,1.97
2018-03-29T02:46:00.344Z,6.27
2018-03-29T02:48:27.106Z,3.00
2018-03-29T02:50:53.846Z,7.57
2018-03-29T02:53:20.570Z,2.07
2018-03-29T02:55:47.269Z,2.90
2018-03-29T02:58:13.981Z,2.00
2018-03-29T03:00:40.813Z,3.93
2018-03-29T03:03:07.522Z,4.20
2018-03-29T03:05:34.224Z,3.53
2018-03-29T03:08:00.946Z,2.93
2018-03-29T03:10:27.696Z,2.67
2018-03-29T03:12:54.417Z,6.70
2018-03-29T03:15:21.119Z,4.93
2018-03-29T03:17:47.828Z,3.40
2018-03-29T03:20:14.534Z,3.67
2018-03-29T03:22:41.261Z,7.30
2018-03-29T03:25:08.005Z,3.03
2018-03-29T03:27:34.711Z,9.37
2018-03-29T03:30:01.466Z,3.23
2018-03-29T03:32:28.191Z,2.87
2018-03-29T03:34:54.903Z,5.80
2018-03-29T03:37:21.668Z,8.00
2018-03-29T03:39:48.381Z,3.67
2018-03-29T03:42:15.085Z,8.93
2018-03-29T03:44:41.803Z,3.80
2018-03-29T03:47:08.510Z,4.63
2018-03-29T03:49:35.266Z,1.93
2018-03-29T03:52:01.983Z,5.90
2018-03-29T03:54:28.688Z,6.77
2018-03-29T03:56:55.401Z,2.20
2018-03-29T03:59:22.109Z,2.03
2018-03-29T04:01:48.894Z,5.20
2018-03-29T04:04:15.636Z,6.53
2018-03-29T04:06:42.370Z,6.07
2018-03-29T04:09:09.078Z,3.00
2018-03-29T04:11:35.789Z,3.43
2018-03-29T04:14:02.549Z,3.47
2018-03-29T04:16:29.256Z,3.63
2018-03-29T04:18:55.953Z,4.73
2018-03-29T04:21:22.718Z,4.07
2018-03-29T04:23:49.425Z,8.50
2018-03-29T04:26:16.157Z,8.07
2018-03-29T04:28:42.878Z,4.87
2018-03-29T04:31:09.585Z,10.90
2018-03-29T04:33:36.298Z,6.20
2018-03-29T04:36:03.008Z,3.27
2018-03-29T04:38:29.798Z,2.70
2018-03-29T04:40:56.505Z,8.97
2018-03-29T04:43:23.233Z,10.07
2018-03-29T04:45:49.944Z,14.97
2018-03-29T04:48:16.675Z,7.27
2018-03-29T04:50:43.375Z,4.83
2018-03-29T04:53:10.101Z,5.47
2018-03-29T04:55:36.825Z,3.13
2018-03-29T04:58:03.529Z,5.47
2018-03-29T05:00:30.266Z,10.00
2018-03-29T05:02:57.332Z,11.47
2018-03-29T05:05:24.043Z,5.10
2018-03-29T05:07:50.798Z,9.37
2018-03-29T05:10:17.513Z,11.03
2018-03-29T05:12:44.421Z,9.83
2018-03-29T05:15:11.169Z,10.03
2018-03-29T05:17:37.905Z,10.97
2018-03-29T05:20:04.613Z,4.87
2018-03-29T05:22:31.315Z,19.73
2018-03-29T05:24:58.105Z,20.20
2018-03-29T05:27:25.624Z,6.80
2018-03-29T05:29:52.345Z,13.67
2018-03-29T05:32:19.046Z,13.63
2018-03-29T05:34:45.768Z,13.27
2018-03-29T05:37:12.465Z,9.67
2018-03-29T05:39:39.203Z,14.93
2018-03-29T05:42:05.915Z,14.73
2018-03-29T05:44:32.675Z,14.37
2018-03-29T05:46:59.401Z,25.10
2018-03-29T05:49:26.117Z,13.73
2018-03-29T05:51:52.869Z,14.43
2018-03-29T05:54:19.594Z,20.60
2018-03-29T05:56:46.302Z,13.30
2018-03-29T05:59:13.015Z,31.00
2018-03-29T06:01:39.767Z,19.80
2018-03-29T06:04:06.505Z,10.90
2018-03-29T06:06:33.247Z,15.93
2018-03-29T06:08:59.953Z,37.47
2018-03-29T06:11:26.669Z,35.73
2018-03-29T06:13:59.158Z,32.70
2018-03-29T06:16:25.902Z,20.77
2018-03-29T06:18:58.253Z,21.23
2018-03-29T06:21:24.966Z,29.83
2018-03-29T06:23:51.670Z,30.10
2018-03-29T06:26:18.391Z,37.23
2018-03-29T06:28:45.121Z,33.47
2018-03-29T06:31:11.836Z,23.90
2018-03-29T06:33:38.569Z,41.97
2018-03-29T06:36:05.282Z,19.53
2018-03-29T06:38:31.997Z,33.77
2018-03-29T06:40:58.749Z,17.10
2018-03-29T06:43:25.449Z,21.67
2018-03-29T06:45:52.157Z,9.17
2018-03-29T06:48:18.860Z,5.83
2018-03-29T06:50:45.565Z,7.20
2018-03-29T06:53:12.294Z,1.70
2018-03-29T06:55:38.994Z,5.53
2018-03-29T06:58:05.704Z,2.70
2018-03-29T07:00:32.407Z,2.87
2018-03-29T07:02:59.097Z,3.80
2018-03-29T07:05:25.840Z,1.97
2018-03-29T07:07:52.550Z,1.60
2018-03-29T07:10:19.254Z,3.10
2018-03-29T07:12:45.953Z,2.03
2018-03-29T07:15:12.653Z,1.93
2018-03-29T07:17:39.377Z,1.73
2018-03-29T07:20:06.079Z,2.27
2018-03-29T07:22:32.797Z,1.10
2018-03-29T07:24:59.497Z,1.10
2018-03-29T07:27:26.193Z,3.20
2018-03-29T07:29:52.933Z,1.20
2018-03-29T07:32:20.485Z,1.60
2018-03-29T07:34:47.192Z,1.43
2018-03-29T07:37:13.894Z,1.63
2018-03-29T07:39:40.593Z,0.80
2018-03-29T07:42:07.348Z,1.70
2018-03-29T07:44:34.050Z,1.30
2018-03-29T07:47:00.763Z,1.10
2018-03-29T07:49:27.456Z,0.90
2018-03-29T07:51:54.157Z,5.47
2018-03-29T07:54:20.885Z,0.87
2018-03-29T07:56:47.586Z,0.60
2018-03-29T07:59:14.308Z,0.80
2018-03-29T08:01:41.014Z,1.03
2018-03-29T08:04:07.711Z,1.77
2018-03-29T08:06:34.437Z,0.97
2018-03-29T08:09:01.144Z,0.70
2018-03-29T08:11:27.841Z,2.67
2018-03-29T08:13:54.541Z,1.80
2018-03-29T08:16:21.236Z,0.60
2018-03-29T08:18:47.969Z,1.33
2018-03-29T08:21:14.673Z,2.27
2018-03-29T08:23:41.374Z,3.40
2018-03-29T08:26:08.086Z,2.10
2018-03-29T08:28:34.805Z,0.80
2018-03-29T08:31:01.530Z,0.70
2018-03-29T08:33:28.228Z,2.73
2018-03-29T08:35:54.924Z,0.93
2018-03-29T08:38:21.621Z,0.80
2018-03-29T08:40:48.326Z,0.73
2018-03-29T08:43:15.058Z,1.47
2018-03-29T08:45:41.791Z,0.80
2018-03-29T08:48:08.506Z,0.70
2018-03-29T08:50:35.213Z,6.13
2018-03-29T08:53:01.913Z,1.60
2018-03-29T08:55:28.653Z,0.93
2018-03-29T08:57:55.354Z,2.77
2018-03-29T09:00:22.049Z,0.83
2018-03-29T09:02:48.753Z,1.37
2018-03-29T09:05:15.465Z,0.90
2018-03-29T09:07:42.210Z,0.70
2018-03-29T09:10:08.917Z,2.10
2018-03-29T09:12:35.613Z,1.03
2018-03-29T09:15:02.308Z,2.33
2018-03-29T09:17:29.013Z,1.07
2018-03-29T09:19:55.744Z,0.70
2018-03-29T09:22:22.459Z,1.63
2018-03-29T09:24:49.157Z,0.70
2018-03-29T09:27:15.853Z,4.30
2018-03-29T09:29:42.572Z,0.60
2018-03-29T09:32:09.301Z,1.07
2018-03-29T09:34:35.997Z,1.03
2018-03-29T09:37:02.697Z,0.60
2018-03-29T09:39:29.398Z,0.73
2018-03-29T09:41:56.101Z,0.60
2018-03-29T09:44:22.825Z,0.70
2018-03-29T09:46:49.525Z,0.60
2018-03-29T09:49:16.226Z,1.87
2018-03-29T09:51:42.939Z,0.87
2018-03-29T09:54:09.637Z,1.93
2018-03-29T09:56:36.363Z,0.70
2018-03-29T09:59:03.068Z,1.37
2018-03-29T10:01:34.584Z,0.70
2018-03-29T10:04:07.126Z,0.80
2018-03-29T10:06:33.841Z,0.90
2018-03-29T10:09:00.565Z,0.77
2018-03-29T10:11:27.302Z,1.90
2018-03-29T10:13:54.001Z,0.50
2018-03-29T10:16:20.707Z,0.83
2018-03-29T10:18:47.426Z,0.70
2018-03-29T10:21:14.172Z,0.60
2018-03-29T10:23:40.872Z,0.47
2018-03-29T10:26:07.587Z,0.77
2018-03-29T10:28:34.293Z,1.03
2018-03-29T10:31:00.994Z,0.60
2018-03-29T10:33:27.739Z,0.90
2018-03-29T10:35:54.452Z,0.60
2018-03-29T10:38:21.161Z,0.50
2018-03-29T10:40:48.157Z,1.70
2018-03-29T10:43:14.889Z,0.60
2018-03-29T10:45:41.629Z,0.70
2018-03-29T10:48:08.338Z,0.60
2018-03-29T10:50:35.049Z,0.60
2018-03-29T10:53:01.753Z,0.67
2018-03-29T10:55:28.460Z,0.60
2018-03-29T10:57:55.202Z,0.50
2018-03-29T11:00:21.901Z,0.50
2018-03-29T11:02:48.601Z,0.60
2018-03-29T11:05:15.299Z,0.50
2018-03-29T11:07:42.039Z,1.43
2018-03-29T11:10:08.777Z,0.70
2018-03-29T11:12:35.477Z,0.60
2018-03-29T11:15:02.209Z,1.00
2018-03-29T11:17:28.917Z,3.10
2018-03-29T11:19:55.638Z,0.80
2018-03-29T11:22:22.381Z,0.97
2018-03-29T11:24:49.077Z,2.30
2018-03-29T11:27:15.778Z,1.67
2018-03-29T11:29:42.486Z,8.93
2018-03-29T11:32:09.185Z,1.23
2018-03-29T11:34:35.923Z,0.70
2018-03-29T11:37:02.730Z,1.23
2018-03-29T11:39:29.434Z,1.93
2018-03-29T11:41:56.145Z,2.73
2018-03-29T11:44:22.858Z,0.70
2018-03-29T11:46:49.596Z,1.33
2018-03-29T11:49:16.302Z,0.97
2018-03-29T11:51:43.009Z,4.70
2018-03-29T11:54:09.718Z,0.93
2018-03-29T11:56:36.415Z,0.80
2018-03-29T11:59:03.120Z,2.77
2018-03-29T12:01:29.855Z,1.37
2018-03-29T12:03:56.769Z,0.80
2018-03-29T12:06:23.467Z,0.77
2018-03-29T12:08:50.197Z,4.43
2018-03-29T12:11:16.897Z,2.30
2018-03-29T12:13:43.593Z,0.87
2018-03-29T12:16:10.399Z,0.87
2018-03-29T12:18:37.351Z,0.90
2018-03-29T12:21:04.057Z,2.00
2018-03-29T12:23:30.753Z,1.33
2018-03-29T12:25:57.460Z,0.90
2018-03-29T12:28:24.185Z,1.50
2018-03-29T12:30:50.898Z,2.40
2018-03-29T12:33:17.609Z,1.23
2018-03-29T12:35:44.313Z,0.80
2018-03-29T12:38:11.018Z,1.43
2018-03-29T12:40:37.785Z,4.23
2018-03-29T12:43:04.489Z,0.87
2018-03-29T12:45:31.189Z,1.93
2018-03-29T12:47:57.957Z,3.13
2018-03-29T12:50:24.732Z,3.43
2018-03-29T12:52:51.409Z,1.00
2018-03-29T12:55:24.030Z,2.20
2018-03-29T12:57:56.497Z,2.23
2018-03-29T13:00:23.197Z,0.80
2018-03-29T13:02:49.916Z,1.03
2018-03-29T13:05:16.613Z,1.20
2018-03-29T13:07:43.313Z,1.40
2018-03-29T13:10:10.053Z,1.17
2018-03-29T13:12:36.757Z,2.80
2018-03-29T13:15:03.461Z,0.80
2018-03-29T13:17:30.162Z,0.90
2018-03-29T13:19:56.864Z,1.50
2018-03-29T13:22:23.601Z,1.27
2018-03-29T13:24:50.309Z,3.13
2018-03-29T13:27:17.057Z,1.10
2018-03-29T13:29:43.755Z,1.70
2018-03-29T13:32:10.464Z,1.67
2018-03-29T13:34:37.185Z,1.87
2018-03-29T13:37:03.885Z,1.70
2018-03-29T13:39:30.599Z,1.47
2018-03-29T13:41:57.331Z,1.00
2018-03-29T13:44:24.027Z,0.77
2018-03-29T13:46:50.816Z,1.17
2018-03-29T13:49:17.513Z,1.00
2018-03-29T13:51:44.218Z,2.53
2018-03-29T13:54:10.958Z,2.67
2018-03-29T13:56:37.664Z,1.20
2018-03-29T13:59:04.399Z,0.90
2018-03-29T14:01:31.105Z,1.33
2018-03-29T14:03:57.818Z,2.40
2018-03-29T14:06:24.537Z,2.97
2018-03-29T14:08:51.238Z,0.90
2018-03-29T14:11:17.965Z,1.60
2018-03-29T14:13:44.879Z,2.83
2018-03-29T14:16:11.577Z,1.30
2018-03-29T14:18:38.279Z,0.83
2018-03-29T14:21:04.976Z,1.20
2018-03-29T14:23:31.766Z,0.90
2018-03-29T14:25:58.495Z,0.90
2018-03-29T14:28:25.200Z,2.13
2018-03-29T14:30:51.898Z,1.27
2018-03-29T14:33:18.609Z,6.00
2018-03-29T14:35:45.388Z,1.10
2018-03-29T14:38:12.081Z,0.83
2018-03-29T14:40:38.805Z,1.27
2018-03-29T14:43:05.501Z,0.80
2018-03-29T14:45:32.225Z,3.13
2018-03-29T14:47:58.963Z,4.33
2018-03-29T14:50:25.672Z,0.80
2018-03-29T14:52:52.372Z,5.97
2018-03-29T14:55:19.081Z,2.17
2018-03-29T14:57:45.788Z,2.50
2018-03-29T15:00:12.513Z,3.40
2018-03-29T15:02:39.213Z,3.70
2018-03-29T15:05:05.934Z,2.27
2018-03-29T15:07:32.645Z,1.03
2018-03-29T15:09:59.343Z,1.50
2018-03-29T15:12:26.069Z,1.67
2018-03-29T15:14:52.773Z,1.20
2018-03-29T15:17:19.710Z,14.60
2018-03-29T15:19:46.422Z,1.00
2018-03-29T15:22:13.128Z,1.70
2018-03-29T15:24:39.854Z,4.43
2018-03-29T15:27:06.561Z,1.00
2018-03-29T15:29:33.285Z,0.83
2018-03-29T15:32:00.000Z,2.93
2018-03-29T15:34:26.707Z,1.20
2018-03-29T15:36:53.490Z,2.63
2018-03-29T15:39:20.187Z,1.63
2018-03-29T15:41:46.892Z,1.83
2018-03-29T15:44:13.609Z,4.53
2018-03-29T15:46:40.305Z,1.13
2018-03-29T15:49:07.069Z,1.23
2018-03-29T15:51:33.772Z,4.57
2018-03-29T15:54:00.503Z,1.20
2018-03-29T15:56:27.195Z,1.03
2018-03-29T15:58:53.917Z,6.87
2018-03-29T16:01:20.637Z,4.03
2018-03-29T16:03:47.349Z,1.00
2018-03-29T16:06:14.049Z,4.93
2018-03-29T16:08:40.750Z,2.33
2018-03-29T16:11:07.454Z,5.63
2018-03-29T16:13:34.201Z,5.97
2018-03-29T16:16:00.905Z,1.97
2018-03-29T16:18:27.642Z,2.10
2018-03-29T16:20:54.352Z,2.10
2018-03-29T16:23:21.053Z,1.67
2018-03-29T16:25:47.772Z,3.00
2018-03-29T16:28:14.473Z,2.80
2018-03-29T16:30:41.171Z,4.83
2018-03-29T16:33:07.886Z,1.73
2018-03-29T16:35:34.591Z,1.00
2018-03-29T16:38:01.328Z,3.23
2018-03-29T16:40:28.029Z,1.40
2018-03-29T16:42:54.727Z,1.90
2018-03-29T16:45:21.434Z,1.27
2018-03-29T16:47:48.141Z,1.80
2018-03-29T16:50:14.873Z,2.20
2018-03-29T16:52:41.580Z,2.77
2018-03-29T16:55:08.273Z,0.93
2018-03-29T16:57:34.993Z,2.20
2018-03-29T17:00:01.693Z,2.37
2018-03-29T17:02:28.421Z,3.50
2018-03-29T17:04:55.122Z,1.30
2018-03-29T17:07:21.820Z,6.23
2018-03-29T17:09:48.526Z,2.70
2018-03-29T17:12:15.232Z,5.97
2018-03-29T17:14:41.969Z,3.23
2018-03-29T17:17:08.670Z,7.67
2018-03-29T17:19:35.381Z,3.60
2018-03-29T17:22:02.080Z,7.37
2018-03-29T17:24:28.781Z,2.17
2018-03-29T17:26:55.514Z,1.47
2018-03-29T17:29:22.213Z,5.00
2018-03-29T17:31:48.924Z,2.93
2018-03-29T17:34:15.624Z,2.43
2018-03-29T17:36:42.333Z,1.30
2018-03-29T17:39:09.069Z,1.20
2018-03-29T17:41:35.769Z,4.13
2018-03-29T17:44:02.477Z,1.60
2018-03-29T17:46:29.184Z,2.70
2018-03-29T17:48:55.883Z,1.93
2018-03-29T17:51:22.621Z,2.60
2018-03-29T17:53:49.321Z,2.37
2018-03-29T17:56:16.018Z,1.30
2018-03-29T17:58:42.723Z,3.10
2018-03-29T18:01:10.215Z,1.40
2018-03-29T18:03:37.041Z,2.00
2018-03-29T18:06:04.315Z,1.63
2018-03-29T18:08:31.250Z,2.23
2018-03-29T18:10:58.020Z,3.00
2018-03-29T18:13:24.730Z,5.47
2018-03-29T18:15:51.452Z,2.17
2018-03-29T18:18:18.170Z,3.90
2018-03-29T18:20:44.935Z,7.93
2018-03-29T18:23:11.630Z,4.30
2018-03-29T18:25:38.338Z,2.63
2018-03-29T18:28:05.117Z,2.70
2018-03-29T18:30:31.818Z,1.90
2018-03-29T18:32:58.536Z,2.50
2018-03-29T18:35:25.250Z,4.07
2018-03-29T18:37:51.958Z,4.17
2018-03-29T18:40:18.680Z,2.60
2018-03-29T18:42:45.393Z,2.07
2018-03-29T18:45:12.113Z,1.37
2018-03-29T18:47:38.817Z,2.77
2018-03-29T18:50:05.559Z,2.17
2018-03-29T18:52:32.257Z,4.23
2018-03-29T18:54:58.961Z,5.07
2018-03-29T18:57:25.785Z,3.63
2018-03-29T18:59:52.486Z,3.57
2018-03-29T19:02:19.185Z,2.23
2018-03-29T19:04:45.940Z,2.23
2018-03-29T19:07:12.660Z,2.87
2018-03-29T19:09:39.373Z,5.33
2018-03-29T19:12:06.073Z,5.40
2018-03-29T19:14:32.777Z,3.10
2018-03-29T19:16:59.513Z,7.63
2018-03-29T19:19:26.218Z,5.70
2018-03-29T19:21:52.925Z,6.50
2018-03-29T19:24:19.650Z,4.70
2018-03-29T19:26:46.356Z,3.50
2018-03-29T19:29:13.086Z,7.40
2018-03-29T19:31:39.793Z,3.17
2018-03-29T19:34:06.512Z,3.13
2018-03-29T19:36:33.213Z,2.33
2018-03-29T19:38:59.925Z,7.43
2018-03-29T19:41:26.657Z,2.90
2018-03-29T19:43:53.364Z,2.77
2018-03-29T19:46:20.119Z,2.97
2018-03-29T19:48:46.830Z,2.37
2018-03-29T19:51:13.541Z,4.50
2018-03-29T19:53:40.281Z,6.57
2018-03-29T19:56:07.016Z,3.33
2018-03-29T19:58:33.906Z,4.57
2018-03-29T20:01:00.605Z,1.43
2018-03-29T20:03:27.310Z,2.77
2018-03-29T20:05:54.106Z,5.23
2018-03-29T20:08:20.853Z,2.47
2018-03-29T20:10:47.565Z,10.03
2018-03-29T20:13:14.276Z,4.93
2018-03-29T20:15:41.009Z,1.87
2018-03-29T20:18:07.768Z,3.57
2018-03-29T20:20:34.477Z,2.93
2018-03-29T20:23:01.181Z,4.00
2018-03-29T20:25:27.909Z,3.03
2018-03-29T20:27:54.618Z,5.20
2018-03-29T20:30:21.425Z,2.37
2018-03-29T20:32:48.129Z,3.57
2018-03-29T20:35:14.841Z,5.30
2018-03-29T20:37:41.557Z,2.10
2018-03-29T20:40:08.277Z,3.03
2018-03-29T20:42:35.193Z,1.60
2018-03-29T20:45:01.927Z,4.80
2018-03-29T20:47:28.641Z,3.30
2018-03-29T20:49:55.434Z,5.23
2018-03-29T20:52:22.173Z,2.73
2018-03-29T20:54:48.904Z,1.93
2018-03-29T20:57:15.669Z,3.90
2018-03-29T20:59:42.378Z,3.47
2018-03-29T21:02:09.113Z,3.90
2018-03-29T21:04:35.843Z,2.03
2018-03-29T21:07:02.593Z,2.07
2018-03-29T21:09:29.310Z,2.30
2018-03-29T21:11:56.004Z,1.60
2018-03-29T21:14:22.721Z,2.50
2018-03-29T21:16:49.397Z,4.00
2018-03-29T21:19:16.137Z,4.13
2018-03-29T21:21:42.829Z,3.73
2018-03-29T21:24:09.527Z,4.20
2018-03-29T21:26:36.210Z,4.57
2018-03-29T21:29:02.955Z,16.17
2018-03-29T21:31:29.665Z,4.10
2018-03-29T21:33:56.378Z,2.93
2018-03-29T21:36:23.086Z,6.00
2018-03-29T21:38:49.787Z,3.23
2018-03-29T21:41:16.468Z,2.10
2018-03-29T21:43:43.183Z,4.73
2018-03-29T21:46:09.880Z,3.50
2018-03-29T21:48:36.579Z,6.50
2018-03-29T21:51:03.299Z,2.97
2018-03-29T21:53:29.993Z,2.07
2018-03-29T21:55:56.711Z,4.77
2018-03-29T21:58:23.386Z,2.67
2018-03-29T22:00:50.074Z,2.77
2018-03-29T22:03:16.767Z,4.13
2018-03-29T22:05:43.455Z,7.70
2018-03-29T22:08:10.167Z,3.73
2018-03-29T22:10:36.860Z,6.57
2018-03-29T22:13:03.574Z,2.90
2018-03-29T22:15:30.252Z,4.17
2018-03-29T22:17:56.950Z,3.50
2018-03-29T22:20:23.650Z,2.23
2018-03-29T22:22:50.390Z,3.50
2018-03-29T22:25:17.067Z,3.20
2018-03-29T22:27:43.757Z,1.30
2018-03-29T22:30:10.437Z,1.63
2018-03-29T22:32:37.158Z,1.40
2018-03-29T22:35:03.867Z,1.97
2018-03-29T22:37:30.548Z,1.93
2018-03-29T22:39:57.270Z,1.40
2018-03-29T22:42:23.959Z,1.60
2018-03-29T22:44:50.676Z,1.83
2018-03-29T22:47:17.379Z,2.37
2018-03-29T22:49:44.066Z,1.40
2018-03-29T22:52:10.755Z,3.33
2018-03-29T22:54:37.428Z,1.40
2018-03-29T22:57:04.148Z,1.30
2018-03-29T22:59:30.845Z,1.50
2018-03-29T23:01:57.545Z,1.47
2018-03-29T23:04:24.295Z,1.90
2018-03-29T23:06:50.999Z,2.33
2018-03-29T23:09:17.722Z,7.27
2018-03-29T23:11:44.442Z,4.20
2018-03-29T23:14:11.115Z,2.03
2018-03-29T23:16:37.809Z,1.30
2018-03-29T23:19:04.486Z,1.10
2018-03-29T23:21:31.209Z,1.30
2018-03-29T23:23:57.909Z,2.47
2018-03-29T23:26:24.610Z,2.20
2018-03-29T23:28:51.293Z,2.23
2018-03-29T23:31:17.985Z,2.50
2018-03-29T23:33:44.694Z,1.20
2018-03-29T23:36:11.410Z,1.10
2018-03-29T23:38:38.110Z,1.37
2018-03-29T23:41:05.078Z,2.00
2018-03-29T23:43:31.757Z,0.97
2018-03-29T23:45:58.462Z,1.30
2018-03-29T23:48:25.143Z,2.60
2018-03-29T23:50:51.840Z,1.30
2018-03-29T23:53:18.525Z,1.10
2018-03-29T23:55:45.204Z,1.00
2018-03-29T23:58:15.784Z,2.87
